sensor_id;sensor_type;location;lat;lon;timestamp;pressure;altitude;pressure_sealevel;temperature;humidity
9746;BME280;4912;50.836;12.958;2023-07-31T00:02:19;97583.47;;;18.22;66.74
9746;BME280;4912;50.836;12.958;2023-07-31T00:04:50;97587.31;;;18.19;66.94
9746;BME280;4912;50.836;12.958;2023-07-31T00:07:21;97586.84;;;18.15;66.81
9746;BME280;4912;50.836;12.958;2023-07-31T00:09:54;97583.75;;;18.19;67.10
9746;BME280;4912;50.836;12.958;2023-07-31T00:12:26;97578.50;;;18.10;66.95
9746;BME280;4912;50.836;12.958;2023-07-31T00:14:56;97574.13;;;18.14;67.09
9746;BME280;4912;50.836;12.958;2023-07-31T00:17:26;97583.81;;;18.13;66.81
9746;BME280;4912;50.836;12.958;2023-07-31T00:19:57;97578.91;;;17.95;66.86
9746;BME280;4912;50.836;12.958;2023-07-31T00:22:27;97573.88;;;17.88;67.51
9746;BME280;4912;50.836;12.958;2023-07-31T00:25:00;97572.34;;;17.87;67.58
9746;BME280;4912;50.836;12.958;2023-07-31T00:27:33;97561.63;;;17.91;67.46
9746;BME280;4912;50.836;12.958;2023-07-31T00:30:05;97562.97;;;17.84;67.18
9746;BME280;4912;50.836;12.958;2023-07-31T00:32:36;97554.03;;;17.86;67.30
9746;BME280;4912;50.836;12.958;2023-07-31T00:35:07;97560.69;;;17.83;67.30
9746;BME280;4912;50.836;12.958;2023-07-31T00:37:37;97558.41;;;17.81;67.07
9746;BME280;4912;50.836;12.958;2023-07-31T00:40:11;97550.53;;;17.80;67.09
9746;BME280;4912;50.836;12.958;2023-07-31T00:42:42;97552.34;;;17.77;67.39
9746;BME280;4912;50.836;12.958;2023-07-31T00:45:14;97539.94;;;17.73;67.16
9746;BME280;4912;50.836;12.958;2023-07-31T00:47:44;97544.78;;;17.72;67.46
9746;BME280;4912;50.836;12.958;2023-07-31T00:50:15;97541.97;;;17.72;66.79
9746;BME280;4912;50.836;12.958;2023-07-31T00:52:46;97535.63;;;17.72;66.89
9746;BME280;4912;50.836;12.958;2023-07-31T00:55:20;97541.91;;;17.78;66.81
9746;BME280;4912;50.836;12.958;2023-07-31T00:57:52;97537.25;;;17.86;66.64
9746;BME280;4912;50.836;12.958;2023-07-31T01:00:23;97536.47;;;17.85;66.07
9746;BME280;4912;50.836;12.958;2023-07-31T01:02:53;97525.78;;;17.89;65.90
9746;BME280;4912;50.836;12.958;2023-07-31T01:05:31;97526.53;;;17.90;65.59
9746;BME280;4912;50.836;12.958;2023-07-31T01:08:20;97525.72;;;17.95;65.54
9746;BME280;4912;50.836;12.958;2023-07-31T01:11:02;97526.69;;;17.97;65.55
9746;BME280;4912;50.836;12.958;2023-07-31T01:13:38;97526.16;;;17.99;65.25
9746;BME280;4912;50.836;12.958;2023-07-31T01:16:08;97526.94;;;17.99;65.45
9746;BME280;4912;50.836;12.958;2023-07-31T01:18:39;97528.16;;;18.04;65.34
9746;BME280;4912;50.836;12.958;2023-07-31T01:21:21;97528.63;;;18.08;64.80
9746;BME280;4912;50.836;12.958;2023-07-31T01:24:21;97526.06;;;18.10;64.65
9746;BME280;4912;50.836;12.958;2023-07-31T01:26:58;97519.22;;;18.06;64.73
9746;BME280;4912;50.836;12.958;2023-07-31T01:29:38;97523.56;;;18.07;64.51
9746;BME280;4912;50.836;12.958;2023-07-31T01:32:13;97512.75;;;18.16;64.70
9746;BME280;4912;50.836;12.958;2023-07-31T01:34:45;97511.09;;;18.26;64.01
9746;BME280;4912;50.836;12.958;2023-07-31T01:37:17;97517.25;;;18.25;63.46
9746;BME280;4912;50.836;12.958;2023-07-31T01:39:47;97512.84;;;18.29;63.56
9746;BME280;4912;50.836;12.958;2023-07-31T01:42:20;97506.63;;;18.18;63.78
9746;BME280;4912;50.836;12.958;2023-07-31T01:44:51;97513.50;;;18.17;63.65
9746;BME280;4912;50.836;12.958;2023-07-31T01:47:23;97512.22;;;18.18;63.63
9746;BME280;4912;50.836;12.958;2023-07-31T01:49:53;97520.56;;;18.23;63.20
9746;BME280;4912;50.836;12.958;2023-07-31T01:52:24;97522.28;;;18.26;63.55
9746;BME280;4912;50.836;12.958;2023-07-31T01:54:55;97526.16;;;18.23;63.47
9746;BME280;4912;50.836;12.958;2023-07-31T01:57:28;97523.00;;;18.32;63.63
9746;BME280;4912;50.836;12.958;2023-07-31T01:59:59;97514.66;;;18.27;63.94
9746;BME280;4912;50.836;12.958;2023-07-31T02:02:37;97518.47;;;18.29;64.48
9746;BME280;4912;50.836;12.958;2023-07-31T02:05:08;97518.53;;;18.24;64.99
9746;BME280;4912;50.836;12.958;2023-07-31T02:07:39;97518.47;;;18.29;65.46
9746;BME280;4912;50.836;12.958;2023-07-31T02:10:09;97516.00;;;18.20;65.68
9746;BME280;4912;50.836;12.958;2023-07-31T02:12:43;97514.41;;;18.06;66.55
9746;BME280;4912;50.836;12.958;2023-07-31T02:15:13;97518.03;;;18.01;67.45
9746;BME280;4912;50.836;12.958;2023-07-31T02:17:44;97521.56;;;18.02;68.61
9746;BME280;4912;50.836;12.958;2023-07-31T02:20:15;97516.94;;;18.04;68.67
9746;BME280;4912;50.836;12.958;2023-07-31T02:22:46;97524.31;;;18.07;69.20
9746;BME280;4912;50.836;12.958;2023-07-31T02:25:16;97526.53;;;17.90;71.14
9746;BME280;4912;50.836;12.958;2023-07-31T02:27:49;97525.78;;;17.89;72.50
9746;BME280;4912;50.836;12.958;2023-07-31T02:30:20;97527.31;;;17.85;73.13
9746;BME280;4912;50.836;12.958;2023-07-31T02:32:51;97524.22;;;17.64;74.55
9746;BME280;4912;50.836;12.958;2023-07-31T02:35:22;97519.94;;;17.57;75.42
9746;BME280;4912;50.836;12.958;2023-07-31T02:37:52;97515.59;;;17.56;75.74
9746;BME280;4912;50.836;12.958;2023-07-31T02:40:23;97522.06;;;17.46;77.40
9746;BME280;4912;50.836;12.958;2023-07-31T02:42:56;97517.28;;;17.41;78.12
9746;BME280;4912;50.836;12.958;2023-07-31T02:45:27;97520.97;;;17.25;79.37
9746;BME280;4912;50.836;12.958;2023-07-31T02:47:57;97504.25;;;17.19;81.00
9746;BME280;4912;50.836;12.958;2023-07-31T02:50:28;97516.97;;;17.14;82.13
9746;BME280;4912;50.836;12.958;2023-07-31T02:52:59;97500.78;;;17.07;83.48
9746;BME280;4912;50.836;12.958;2023-07-31T02:55:29;97498.91;;;17.15;84.45
9746;BME280;4912;50.836;12.958;2023-07-31T02:58:02;97498.06;;;17.26;84.32
9746;BME280;4912;50.836;12.958;2023-07-31T03:00:33;97507.16;;;17.32;84.23
9746;BME280;4912;50.836;12.958;2023-07-31T03:03:03;97499.78;;;17.35;84.71
9746;BME280;4912;50.836;12.958;2023-07-31T03:05:34;97498.06;;;17.26;84.65
9746;BME280;4912;50.836;12.958;2023-07-31T03:08:04;97502.56;;;17.05;85.89
9746;BME280;4912;50.836;12.958;2023-07-31T03:10:35;97503.84;;;17.04;86.59
9746;BME280;4912;50.836;12.958;2023-07-31T03:13:08;97500.06;;;17.01;87.98
9746;BME280;4912;50.836;12.958;2023-07-31T03:15:41;97483.97;;;17.13;87.75
9746;BME280;4912;50.836;12.958;2023-07-31T03:18:12;97501.53;;;17.08;88.04
9746;BME280;4912;50.836;12.958;2023-07-31T03:20:43;97496.16;;;17.10;88.11
9746;BME280;4912;50.836;12.958;2023-07-31T03:23:13;97506.66;;;16.98;90.12
9746;BME280;4912;50.836;12.958;2023-07-31T03:25:55;97496.16;;;17.10;91.31
9746;BME280;4912;50.836;12.958;2023-07-31T03:28:32;97498.75;;;17.08;91.50
9746;BME280;4912;50.836;12.958;2023-07-31T03:31:04;97488.84;;;17.07;92.02
9746;BME280;4912;50.836;12.958;2023-07-31T03:33:35;97497.78;;;17.00;91.72
9746;BME280;4912;50.836;12.958;2023-07-31T03:36:06;97497.34;;;16.90;93.12
9746;BME280;4912;50.836;12.958;2023-07-31T03:38:37;97491.66;;;17.01;93.87
9746;BME280;4912;50.836;12.958;2023-07-31T03:41:08;97489.38;;;17.00;93.86
9746;BME280;4912;50.836;12.958;2023-07-31T03:43:41;97490.91;;;17.01;94.41
9746;BME280;4912;50.836;12.958;2023-07-31T03:46:11;97477.53;;;16.88;95.50
9746;BME280;4912;50.836;12.958;2023-07-31T03:48:42;97481.56;;;16.93;96.03
9746;BME280;4912;50.836;12.958;2023-07-31T03:51:13;97482.66;;;16.84;96.02
9746;BME280;4912;50.836;12.958;2023-07-31T03:53:43;97486.50;;;16.75;97.98
9746;BME280;4912;50.836;12.958;2023-07-31T03:56:14;97475.59;;;16.72;98.24
9746;BME280;4912;50.836;12.958;2023-07-31T03:58:47;97471.50;;;16.78;98.43
9746;BME280;4912;50.836;12.958;2023-07-31T04:01:19;97475.56;;;16.77;97.39
9746;BME280;4912;50.836;12.958;2023-07-31T04:03:49;97483.22;;;16.71;97.64
9746;BME280;4912;50.836;12.958;2023-07-31T04:06:20;97473.34;;;16.65;97.91
9746;BME280;4912;50.836;12.958;2023-07-31T04:08:51;97486.81;;;16.55;98.98
9746;BME280;4912;50.836;12.958;2023-07-31T04:11:21;97481.25;;;16.55;99.46
9746;BME280;4912;50.836;12.958;2023-07-31T04:13:54;97476.66;;;16.58;100.00
9746;BME280;4912;50.836;12.958;2023-07-31T04:16:25;97472.34;;;16.62;100.00
9746;BME280;4912;50.836;12.958;2023-07-31T04:18:56;97471.28;;;16.71;100.00
9746;BME280;4912;50.836;12.958;2023-07-31T04:21:26;97468.47;;;16.76;98.81
9746;BME280;4912;50.836;12.958;2023-07-31T04:23:57;97456.81;;;16.72;99.63
9746;BME280;4912;50.836;12.958;2023-07-31T04:26:27;97458.88;;;16.66;99.04
9746;BME280;4912;50.836;12.958;2023-07-31T04:29:00;97464.97;;;16.65;99.78
9746;BME280;4912;50.836;12.958;2023-07-31T04:31:31;97456.81;;;16.72;98.77
9746;BME280;4912;50.836;12.958;2023-07-31T04:34:05;97455.81;;;16.70;99.57
9746;BME280;4912;50.836;12.958;2023-07-31T04:36:36;97457.31;;;16.71;100.00
9746;BME280;4912;50.836;12.958;2023-07-31T04:39:07;97454.53;;;16.71;100.00
9746;BME280;4912;50.836;12.958;2023-07-31T04:41:37;97442.31;;;16.74;100.00
9746;BME280;4912;50.836;12.958;2023-07-31T04:44:11;97447.59;;;16.83;100.00
9746;BME280;4912;50.836;12.958;2023-07-31T04:46:41;97442.03;;;16.77;99.81
9746;BME280;4912;50.836;12.958;2023-07-31T04:49:12;97441.28;;;16.77;99.37
9746;BME280;4912;50.836;12.958;2023-07-31T04:51:42;97438.16;;;16.86;100.00
9746;BME280;4912;50.836;12.958;2023-07-31T04:54:13;97440.19;;;16.86;99.79
9746;BME280;4912;50.836;12.958;2023-07-31T04:56:44;97429.50;;;16.90;99.75
9746;BME280;4912;50.836;12.958;2023-07-31T04:59:20;97431.00;;;16.91;98.78
9746;BME280;4912;50.836;12.958;2023-07-31T05:01:51;97425.84;;;17.00;98.12
9746;BME280;4912;50.836;12.958;2023-07-31T05:04:22;97429.13;;;17.04;97.88
9746;BME280;4912;50.836;12.958;2023-07-31T05:06:52;97424.50;;;17.12;97.20
9746;BME280;4912;50.836;12.958;2023-07-31T05:09:23;97434.28;;;17.25;96.52
9746;BME280;4912;50.836;12.958;2023-07-31T05:11:53;97429.88;;;17.35;95.57
9746;BME280;4912;50.836;12.958;2023-07-31T05:14:26;97431.09;;;17.39;94.56
9746;BME280;4912;50.836;12.958;2023-07-31T05:16:57;97426.88;;;17.27;95.26
9746;BME280;4912;50.836;12.958;2023-07-31T05:19:28;97428.16;;;17.26;94.04
9746;BME280;4912;50.836;12.958;2023-07-31T05:21:58;97419.78;;;17.26;94.41
9746;BME280;4912;50.836;12.958;2023-07-31T05:24:29;97430.97;;;17.26;94.36
9746;BME280;4912;50.836;12.958;2023-07-31T05:27:00;97426.66;;;17.25;94.20
9746;BME280;4912;50.836;12.958;2023-07-31T05:29:33;97422.16;;;17.16;94.71
9746;BME280;4912;50.836;12.958;2023-07-31T05:32:05;97421.41;;;17.16;94.36
9746;BME280;4912;50.836;12.958;2023-07-31T05:34:37;97422.91;;;17.17;95.65
9746;BME280;4912;50.836;12.958;2023-07-31T05:37:09;97429.63;;;17.33;93.71
9746;BME280;4912;50.836;12.958;2023-07-31T05:39:40;97424.03;;;17.33;93.80
9746;BME280;4912;50.836;12.958;2023-07-31T05:42:10;97420.47;;;17.32;93.64
9746;BME280;4912;50.836;12.958;2023-07-31T05:44:44;97427.38;;;17.31;94.02
9746;BME280;4912;50.836;12.958;2023-07-31T05:47:14;97435.53;;;17.29;93.76
9746;BME280;4912;50.836;12.958;2023-07-31T05:49:45;97439.78;;;17.36;94.62
9746;BME280;4912;50.836;12.958;2023-07-31T05:52:16;97428.34;;;17.34;93.62
9746;BME280;4912;50.836;12.958;2023-07-31T05:54:47;97427.84;;;17.35;92.74
9746;BME280;4912;50.836;12.958;2023-07-31T05:57:17;97431.09;;;17.39;93.00
9746;BME280;4912;50.836;12.958;2023-07-31T05:59:50;97434.19;;;17.36;92.63
9746;BME280;4912;50.836;12.958;2023-07-31T06:02:21;97423.97;;;17.38;93.01
9746;BME280;4912;50.836;12.958;2023-07-31T06:04:52;97423.97;;;17.38;92.45
9746;BME280;4912;50.836;12.958;2023-07-31T06:07:22;97417.13;;;17.39;91.87
9746;BME280;4912;50.836;12.958;2023-07-31T06:09:53;97412.16;;;17.51;90.66
9746;BME280;4912;50.836;12.958;2023-07-31T06:12:24;97419.28;;;17.52;90.97
9746;BME280;4912;50.836;12.958;2023-07-31T06:14:58;97417.69;;;17.56;90.53
9746;BME280;4912;50.836;12.958;2023-07-31T06:17:28;97418.44;;;17.63;88.71
9746;BME280;4912;50.836;12.958;2023-07-31T06:19:59;97417.44;;;17.60;88.94
9746;BME280;4912;50.836;12.958;2023-07-31T06:22:32;97426.81;;;17.63;89.66
9746;BME280;4912;50.836;12.958;2023-07-31T06:25:07;97418.38;;;17.68;88.17
9746;BME280;4912;50.836;12.958;2023-07-31T06:27:41;97421.66;;;17.72;87.80
9746;BME280;4912;50.836;12.958;2023-07-31T06:30:15;97413.81;;;17.89;87.89
9746;BME280;4912;50.836;12.958;2023-07-31T06:32:45;97413.22;;;17.96;86.59
9746;BME280;4912;50.836;12.958;2023-07-31T06:35:16;97418.81;;;17.96;86.01
9746;BME280;4912;50.836;12.958;2023-07-31T06:37:46;97423.97;;;18.11;85.93
9746;BME280;4912;50.836;12.958;2023-07-31T06:40:18;97420.34;;;18.16;86.06
9746;BME280;4912;50.836;12.958;2023-07-31T06:42:48;97424.41;;;18.15;85.29
9746;BME280;4912;50.836;12.958;2023-07-31T06:45:21;97423.06;;;18.22;84.53
9746;BME280;4912;50.836;12.958;2023-07-31T06:47:52;97428.31;;;18.31;84.09
9746;BME280;4912;50.836;12.958;2023-07-31T06:50:23;97415.50;;;18.35;83.83
9746;BME280;4912;50.836;12.958;2023-07-31T06:52:54;97420.59;;;18.37;83.66
9746;BME280;4912;50.836;12.958;2023-07-31T06:55:25;97416.44;;;18.44;82.38
9746;BME280;4912;50.836;12.958;2023-07-31T06:57:56;97427.63;;;18.44;82.26
9746;BME280;4912;50.836;12.958;2023-07-31T07:00:29;97427.09;;;18.45;81.35
9746;BME280;4912;50.836;12.958;2023-07-31T07:03:00;97419.44;;;18.46;81.34
9746;BME280;4912;50.836;12.958;2023-07-31T07:05:31;97421.25;;;18.62;80.27
9746;BME280;4912;50.836;12.958;2023-07-31T07:08:02;97419.88;;;18.87;79.83
9746;BME280;4912;50.836;12.958;2023-07-31T07:10:32;97423.63;;;19.08;79.71
9746;BME280;4912;50.836;12.958;2023-07-31T07:13:03;97428.63;;;19.29;78.60
9746;BME280;4912;50.836;12.958;2023-07-31T07:15:36;97424.28;;;19.28;75.86
9746;BME280;4912;50.836;12.958;2023-07-31T07:18:07;97414.50;;;19.34;76.07
9746;BME280;4912;50.836;12.958;2023-07-31T07:20:38;97415.44;;;19.23;76.90
9746;BME280;4912;50.836;12.958;2023-07-31T07:23:08;97418.91;;;19.30;76.52
9746;BME280;4912;50.836;12.958;2023-07-31T07:25:39;97427.53;;;19.18;76.33
9746;BME280;4912;50.836;12.958;2023-07-31T07:28:09;97422.44;;;19.17;76.26
9746;BME280;4912;50.836;12.958;2023-07-31T07:30:50;97429.09;;;19.01;76.03
9746;BME280;4912;50.836;12.958;2023-07-31T07:33:21;97429.09;;;19.01;75.33
9746;BME280;4912;50.836;12.958;2023-07-31T07:35:52;97434.16;;;19.02;76.13
9746;BME280;4912;50.836;12.958;2023-07-31T07:38:22;97431.38;;;19.15;76.39
9746;BME280;4912;50.836;12.958;2023-07-31T07:40:53;97431.81;;;19.06;75.07
9746;BME280;4912;50.836;12.958;2023-07-31T07:43:23;97420.94;;;19.16;76.23
9746;BME280;4912;50.836;12.958;2023-07-31T07:45:57;97428.47;;;19.21;75.17
9746;BME280;4912;50.836;12.958;2023-07-31T07:48:27;97426.03;;;19.31;74.98
9746;BME280;4912;50.836;12.958;2023-07-31T07:50:58;97425.41;;;19.38;74.91
9746;BME280;4912;50.836;12.958;2023-07-31T07:53:29;97425.53;;;19.45;74.89
9746;BME280;4912;50.836;12.958;2023-07-31T07:55:59;97424.31;;;19.41;73.90
9746;BME280;4912;50.836;12.958;2023-07-31T07:58:29;97429.59;;;19.31;73.98
9746;BME280;4912;50.836;12.958;2023-07-31T08:01:03;97435.00;;;19.29;74.21
9746;BME280;4912;50.836;12.958;2023-07-31T08:03:33;97433.50;;;19.41;74.26
9746;BME280;4912;50.836;12.958;2023-07-31T08:06:04;97430.16;;;19.43;74.32
9746;BME280;4912;50.836;12.958;2023-07-31T08:08:36;97440.50;;;19.35;74.03
9746;BME280;4912;50.836;12.958;2023-07-31T08:11:07;97431.19;;;19.13;74.60
9746;BME280;4912;50.836;12.958;2023-07-31T08:13:38;97435.47;;;19.14;74.89
9746;BME280;4912;50.836;12.958;2023-07-31T08:16:11;97434.94;;;19.16;75.39
9746;BME280;4912;50.836;12.958;2023-07-31T08:18:41;97432.59;;;19.20;75.34
9746;BME280;4912;50.836;12.958;2023-07-31T08:21:12;97434.38;;;19.04;74.16
9746;BME280;4912;50.836;12.958;2023-07-31T08:23:43;97429.28;;;19.03;75.60
9746;BME280;4912;50.836;12.958;2023-07-31T08:26:15;97437.28;;;18.99;74.38
9746;BME280;4912;50.836;12.958;2023-07-31T08:28:46;97435.75;;;18.98;75.32
9746;BME280;4912;50.836;12.958;2023-07-31T08:31:19;97433.03;;;18.92;75.07
9746;BME280;4912;50.836;12.958;2023-07-31T08:33:52;97438.97;;;18.89;75.59
9746;BME280;4912;50.836;12.958;2023-07-31T08:36:28;97445.16;;;19.00;75.36
9746;BME280;4912;50.836;12.958;2023-07-31T08:39:01;97448.25;;;18.97;74.95
9746;BME280;4912;50.836;12.958;2023-07-31T08:41:32;97435.00;;;18.97;75.03
9746;BME280;4912;50.836;12.958;2023-07-31T08:44:08;97444.63;;;19.02;75.54
9746;BME280;4912;50.836;12.958;2023-07-31T08:46:44;97440.59;;;18.97;75.22
9746;BME280;4912;50.836;12.958;2023-07-31T08:49:17;97438.59;;;19.11;75.27
9746;BME280;4912;50.836;12.958;2023-07-31T08:51:50;97435.66;;;19.03;74.69
9746;BME280;4912;50.836;12.958;2023-07-31T08:54:20;97433.53;;;19.09;74.90
9746;BME280;4912;50.836;12.958;2023-07-31T08:56:53;97423.09;;;19.23;74.57
9746;BME280;4912;50.836;12.958;2023-07-31T08:59:26;97434.25;;;19.42;73.63
9746;BME280;4912;50.836;12.958;2023-07-31T09:02:08;97425.94;;;19.36;74.05
9746;BME280;4912;50.836;12.958;2023-07-31T09:04:39;97426.00;;;19.49;73.23
9746;BME280;4912;50.836;12.958;2023-07-31T09:07:09;97424.84;;;19.39;73.65
9746;BME280;4912;50.836;12.958;2023-07-31T09:09:45;97420.47;;;19.44;73.42
9746;BME280;4912;50.836;12.958;2023-07-31T09:12:16;97423.28;;;19.57;73.23
9746;BME280;4912;50.836;12.958;2023-07-31T09:14:47;97419.19;;;19.58;72.49
9746;BME280;4912;50.836;12.958;2023-07-31T09:17:31;97423.41;;;19.51;72.61
9746;BME280;4912;50.836;12.958;2023-07-31T09:20:14;97424.56;;;19.43;72.72
9746;BME280;4912;50.836;12.958;2023-07-31T09:22:46;97429.34;;;19.48;72.76
9746;BME280;4912;50.836;12.958;2023-07-31T09:25:19;97429.53;;;19.50;72.49
9746;BME280;4912;50.836;12.958;2023-07-31T09:27:56;97426.53;;;19.48;72.64
9746;BME280;4912;50.836;12.958;2023-07-31T09:30:28;97416.06;;;19.48;72.50
9746;BME280;4912;50.836;12.958;2023-07-31T09:33:04;97406.91;;;19.61;72.55
9746;BME280;4912;50.836;12.958;2023-07-31T09:35:51;97424.47;;;19.61;72.45
9746;BME280;4912;50.836;12.958;2023-07-31T09:38:48;97416.63;;;19.73;72.24
9746;BME280;4912;50.836;12.958;2023-07-31T09:41:21;97414.03;;;19.88;71.42
9746;BME280;4912;50.836;12.958;2023-07-31T09:43:53;97412.38;;;19.80;71.50
9746;BME280;4912;50.836;12.958;2023-07-31T09:46:27;97406.78;;;19.80;71.85
9746;BME280;4912;50.836;12.958;2023-07-31T09:49:10;97404.94;;;19.95;71.78
9746;BME280;4912;50.836;12.958;2023-07-31T09:51:43;97397.06;;;19.94;71.73
9746;BME280;4912;50.836;12.958;2023-07-31T09:54:16;97399.53;;;19.97;71.64
9746;BME280;4912;50.836;12.958;2023-07-31T09:56:49;97396.72;;;20.11;71.50
9746;BME280;4912;50.836;12.958;2023-07-31T09:59:22;97392.47;;;20.30;70.70
9746;BME280;4912;50.836;12.958;2023-07-31T10:01:56;97393.00;;;20.42;69.77
9746;BME280;4912;50.836;12.958;2023-07-31T10:04:30;97380.34;;;20.69;68.58
9746;BME280;4912;50.836;12.958;2023-07-31T10:07:02;97385.66;;;20.94;68.38
9746;BME280;4912;50.836;12.958;2023-07-31T10:09:34;97369.47;;;21.07;66.51
9746;BME280;4912;50.836;12.958;2023-07-31T10:12:08;97371.66;;;21.01;66.89
9746;BME280;4912;50.836;12.958;2023-07-31T10:14:44;97362.88;;;21.05;66.23
9746;BME280;4912;50.836;12.958;2023-07-31T10:17:15;97376.41;;;21.06;66.86
9746;BME280;4912;50.836;12.958;2023-07-31T10:19:51;97368.53;;;21.26;66.42
9746;BME280;4912;50.836;12.958;2023-07-31T10:22:23;97370.09;;;21.13;66.85
9746;BME280;4912;50.836;12.958;2023-07-31T10:24:58;97369.31;;;21.13;66.97
9746;BME280;4912;50.836;12.958;2023-07-31T10:27:30;97366.03;;;21.22;67.24
9746;BME280;4912;50.836;12.958;2023-07-31T10:30:00;97376.91;;;21.18;67.79
9746;BME280;4912;50.836;12.958;2023-07-31T10:32:35;97366.72;;;21.15;67.97
9746;BME280;4912;50.836;12.958;2023-07-31T10:35:10;97375.38;;;21.17;67.44
9746;BME280;4912;50.836;12.958;2023-07-31T10:37:43;97357.84;;;21.11;68.00
9746;BME280;4912;50.836;12.958;2023-07-31T10:40:16;97370.63;;;21.12;68.95
9746;BME280;4912;50.836;12.958;2023-07-31T10:42:53;97378.94;;;21.17;70.07
9746;BME280;4912;50.836;12.958;2023-07-31T10:45:31;97368.78;;;20.94;70.06
9746;BME280;4912;50.836;12.958;2023-07-31T10:48:05;97360.75;;;20.98;70.24
9746;BME280;4912;50.836;12.958;2023-07-31T10:50:47;97368.91;;;21.09;69.15
9746;BME280;4912;50.836;12.958;2023-07-31T10:53:26;97359.03;;;21.36;67.87
9746;BME280;4912;50.836;12.958;2023-07-31T10:56:02;97352.28;;;21.68;66.95
9746;BME280;4912;50.836;12.958;2023-07-31T10:58:34;97348.69;;;22.54;64.07
9746;BME280;4912;50.836;12.958;2023-07-31T11:01:09;97338.44;;;22.95;61.74
9746;BME280;4912;50.836;12.958;2023-07-31T11:03:44;97335.56;;;23.63;60.46
9746;BME280;4912;50.836;12.958;2023-07-31T11:06:29;97330.03;;;23.95;58.25
9746;BME280;4912;50.836;12.958;2023-07-31T11:09:00;97338.44;;;24.11;56.93
9746;BME280;4912;50.836;12.958;2023-07-31T11:11:35;97335.00;;;23.64;57.77
9746;BME280;4912;50.836;12.958;2023-07-31T11:14:06;97333.72;;;23.43;58.60
9746;BME280;4912;50.836;12.958;2023-07-31T11:16:41;97322.97;;;23.41;59.20
9746;BME280;4912;50.836;12.958;2023-07-31T11:19:14;97324.31;;;23.33;59.52
9746;BME280;4912;50.836;12.958;2023-07-31T11:22:03;97318.31;;;23.06;59.72
9746;BME280;4912;50.836;12.958;2023-07-31T11:24:34;97314.94;;;23.00;59.91
9746;BME280;4912;50.836;12.958;2023-07-31T11:27:10;97317.75;;;23.07;59.67
9746;BME280;4912;50.836;12.958;2023-07-31T11:29:41;97313.44;;;22.83;59.46
9746;BME280;4912;50.836;12.958;2023-07-31T11:32:20;97311.72;;;22.73;59.67
9746;BME280;4912;50.836;12.958;2023-07-31T11:34:52;97309.44;;;22.71;59.27
9746;BME280;4912;50.836;12.958;2023-07-31T11:37:40;97313.06;;;22.79;60.04
9746;BME280;4912;50.836;12.958;2023-07-31T11:40:11;97303.78;;;23.55;57.23
9746;BME280;4912;50.836;12.958;2023-07-31T11:42:49;97305.03;;;24.17;55.86
9746;BME280;4912;50.836;12.958;2023-07-31T11:45:24;97295.94;;;23.86;54.81
9746;BME280;4912;50.836;12.958;2023-07-31T11:47:58;97305.97;;;23.79;55.49
9746;BME280;4912;50.836;12.958;2023-07-31T11:50:34;97291.94;;;23.49;55.90
9746;BME280;4912;50.836;12.958;2023-07-31T11:53:09;97288.69;;;23.60;56.50
9746;BME280;4912;50.836;12.958;2023-07-31T11:55:43;97301.53;;;23.31;55.83
9746;BME280;4912;50.836;12.958;2023-07-31T11:58:19;97289.69;;;23.09;56.75
9746;BME280;4912;50.836;12.958;2023-07-31T12:00:52;97293.84;;;22.93;56.96
9746;BME280;4912;50.836;12.958;2023-07-31T12:03:24;97278.44;;;23.02;58.12
9746;BME280;4912;50.836;12.958;2023-07-31T12:05:55;97287.47;;;23.00;57.60
9746;BME280;4912;50.836;12.958;2023-07-31T12:08:31;97289.91;;;22.81;57.53
9746;BME280;4912;50.836;12.958;2023-07-31T12:11:07;97278.41;;;23.32;56.20
9746;BME280;4912;50.836;12.958;2023-07-31T12:13:43;97291.34;;;23.58;55.45
9746;BME280;4912;50.836;12.958;2023-07-31T12:16:16;97271.09;;;23.84;52.88
9746;BME280;4912;50.836;12.958;2023-07-31T12:18:49;97266.47;;;24.69;50.92
9746;BME280;4912;50.836;12.958;2023-07-31T12:21:27;97256.88;;;25.31;50.04
9746;BME280;4912;50.836;12.958;2023-07-31T12:24:01;97261.16;;;24.98;49.64
9746;BME280;4912;50.836;12.958;2023-07-31T12:26:34;97252.91;;;24.67;51.08
9746;BME280;4912;50.836;12.958;2023-07-31T12:29:07;97255.75;;;24.67;50.40
9746;BME280;4912;50.836;12.958;2023-07-31T12:31:41;97266.81;;;24.73;50.69
9746;BME280;4912;50.836;12.958;2023-07-31T12:34:16;97270.63;;;24.68;50.18
9746;BME280;4912;50.836;12.958;2023-07-31T12:36:48;97262.84;;;24.19;50.81
9746;BME280;4912;50.836;12.958;2023-07-31T12:39:21;97264.13;;;23.85;51.33
9746;BME280;4912;50.836;12.958;2023-07-31T12:41:52;97257.44;;;23.58;53.04
9746;BME280;4912;50.836;12.958;2023-07-31T12:44:23;97245.59;;;23.52;54.20
9746;BME280;4912;50.836;12.958;2023-07-31T12:46:55;97243.72;;;23.94;53.61
9746;BME280;4912;50.836;12.958;2023-07-31T12:49:25;97229.91;;;24.06;52.55
9746;BME280;4912;50.836;12.958;2023-07-31T12:51:56;97229.47;;;24.17;52.15
9746;BME280;4912;50.836;12.958;2023-07-31T12:54:29;97229.75;;;23.64;53.23
9746;BME280;4912;50.836;12.958;2023-07-31T12:56:59;97219.63;;;23.46;54.72
9746;BME280;4912;50.836;12.958;2023-07-31T12:59:29;97209.44;;;23.58;54.83
9746;BME280;4912;50.836;12.958;2023-07-31T13:02:00;97215.59;;;24.04;53.55
9746;BME280;4912;50.836;12.958;2023-07-31T13:04:30;97217.47;;;24.09;54.14
9746;BME280;4912;50.836;12.958;2023-07-31T13:07:01;97216.81;;;23.86;53.45
9746;BME280;4912;50.836;12.958;2023-07-31T13:09:35;97213.09;;;23.83;54.09
9746;BME280;4912;50.836;12.958;2023-07-31T13:12:06;97211.66;;;23.99;54.13
9746;BME280;4912;50.836;12.958;2023-07-31T13:14:37;97212.78;;;24.04;52.85
9746;BME280;4912;50.836;12.958;2023-07-31T13:17:08;97208.91;;;24.24;53.80
9746;BME280;4912;50.836;12.958;2023-07-31T13:19:38;97204.25;;;24.12;52.69
9746;BME280;4912;50.836;12.958;2023-07-31T13:22:09;97198.81;;;24.06;52.95
9746;BME280;4912;50.836;12.958;2023-07-31T13:24:42;97193.00;;;24.36;51.75
9746;BME280;4912;50.836;12.958;2023-07-31T13:27:12;97202.84;;;24.28;51.59
9746;BME280;4912;50.836;12.958;2023-07-31T13:29:44;97222.59;;;24.03;52.64
9746;BME280;4912;50.836;12.958;2023-07-31T13:32:15;97192.22;;;24.03;53.27
9746;BME280;4912;50.836;12.958;2023-07-31T13:34:47;97169.66;;;26.18;48.58
9746;BME280;4912;50.836;12.958;2023-07-31T13:37:18;97169.59;;;25.37;49.33
9746;BME280;4912;50.836;12.958;2023-07-31T13:39:51;97174.28;;;27.24;45.39